sensor_id;sensor_type;location;lat;lon;timestamp;temperature;humidity
16402;DHT22;8310;44.626;11.176;2023-04-07T00:00:45;8.50;42.80
16402;DHT22;8310;44.626;11.176;2023-04-07T00:03:13;8.50;42.80
16402;DHT22;8310;44.626;11.176;2023-04-07T00:05:41;8.50;42.90
16402;DHT22;8310;44.626;11.176;2023-04-07T00:08:08;8.60;42.90
16402;DHT22;8310;44.626;11.176;2023-04-07T00:10:36;8.60;42.90
16402;DHT22;8310;44.626;11.176;2023-04-07T00:13:04;8.60;42.90
16402;DHT22;8310;44.626;11.176;2023-04-07T00:15:33;8.70;43.00
16402;DHT22;8310;44.626;11.176;2023-04-07T00:18:01;8.70;43.00
16402;DHT22;8310;44.626;11.176;2023-04-07T00:20:28;8.70;43.70
16402;DHT22;8310;44.626;11.176;2023-04-07T00:22:56;8.70;43.00
16402;DHT22;8310;44.626;11.176;2023-04-07T00:25:24;8.70;43.00
16402;DHT22;8310;44.626;11.176;2023-04-07T00:27:52;8.70;43.00
16402;DHT22;8310;44.626;11.176;2023-04-07T00:30:20;8.70;43.00
16402;DHT22;8310;44.626;11.176;2023-04-07T00:32:49;8.70;43.10
16402;DHT22;8310;44.626;11.176;2023-04-07T00:35:17;8.70;43.30
16402;DHT22;8310;44.626;11.176;2023-04-07T00:37:45;8.60;42.90
16402;DHT22;8310;44.626;11.176;2023-04-07T00:40:13;8.60;42.90
16402;DHT22;8310;44.626;11.176;2023-04-07T00:42:40;8.60;43.10
16402;DHT22;8310;44.626;11.176;2023-04-07T00:45:09;8.60;43.30
16402;DHT22;8310;44.626;11.176;2023-04-07T00:47:37;8.60;43.00
16402;DHT22;8310;44.626;11.176;2023-04-07T00:50:07;8.60;43.80
16402;DHT22;8310;44.626;11.176;2023-04-07T00:52:35;8.50;43.10
16402;DHT22;8310;44.626;11.176;2023-04-07T00:55:04;8.50;42.90
16402;DHT22;8310;44.626;11.176;2023-04-07T00:57:32;8.40;42.90
16402;DHT22;8310;44.626;11.176;2023-04-07T01:00:00;8.40;43.10
16402;DHT22;8310;44.626;11.176;2023-04-07T01:02:32;8.40;43.20
16402;DHT22;8310;44.626;11.176;2023-04-07T01:05:11;8.40;43.90
16402;DHT22;8310;44.626;11.176;2023-04-07T01:07:47;8.30;44.50
16402;DHT22;8310;44.626;11.176;2023-04-07T01:10:22;8.20;43.30
16402;DHT22;8310;44.626;11.176;2023-04-07T01:12:56;8.20;43.00
16402;DHT22;8310;44.626;11.176;2023-04-07T01:15:29;8.10;43.80
16402;DHT22;8310;44.626;11.176;2023-04-07T01:18:04;8.10;43.10
16402;DHT22;8310;44.626;11.176;2023-04-07T01:20:36;8.00;43.00
16402;DHT22;8310;44.626;11.176;2023-04-07T01:23:06;8.10;43.10
16402;DHT22;8310;44.626;11.176;2023-04-07T01:25:49;8.10;43.10
16402;DHT22;8310;44.626;11.176;2023-04-07T01:28:55;8.10;43.10
16402;DHT22;8310;44.626;11.176;2023-04-07T01:31:25;8.10;43.70
16402;DHT22;8310;44.626;11.176;2023-04-07T01:33:54;8.10;43.10
16402;DHT22;8310;44.626;11.176;2023-04-07T01:36:26;8.10;43.20
16402;DHT22;8310;44.626;11.176;2023-04-07T01:38:54;8.20;43.20
16402;DHT22;8310;44.626;11.176;2023-04-07T01:41:22;8.20;43.20
16402;DHT22;8310;44.626;11.176;2023-04-07T01:43:51;8.20;43.20
16402;DHT22;8310;44.626;11.176;2023-04-07T01:46:20;8.20;43.80
16402;DHT22;8310;44.626;11.176;2023-04-07T01:48:50;8.20;45.10
16402;DHT22;8310;44.626;11.176;2023-04-07T01:51:20;8.00;44.20
16402;DHT22;8310;44.626;11.176;2023-04-07T01:53:48;7.90;43.90
16402;DHT22;8310;44.626;11.176;2023-04-07T01:56:16;7.70;43.10
16402;DHT22;8310;44.626;11.176;2023-04-07T01:58:44;7.70;43.30
16402;DHT22;8310;44.626;11.176;2023-04-07T02:01:12;7.60;43.20
16402;DHT22;8310;44.626;11.176;2023-04-07T02:03:43;7.50;44.30
16402;DHT22;8310;44.626;11.176;2023-04-07T02:06:17;7.50;46.20
16402;DHT22;8310;44.626;11.176;2023-04-07T02:08:49;7.50;45.10
16402;DHT22;8310;44.626;11.176;2023-04-07T02:11:19;7.40;44.50
16402;DHT22;8310;44.626;11.176;2023-04-07T02:13:48;7.40;43.70
16402;DHT22;8310;44.626;11.176;2023-04-07T02:16:21;7.40;43.50
16402;DHT22;8310;44.626;11.176;2023-04-07T02:18:49;7.40;43.50
16402;DHT22;8310;44.626;11.176;2023-04-07T02:21:20;7.40;44.10
16402;DHT22;8310;44.626;11.176;2023-04-07T02:23:48;7.40;44.00
16402;DHT22;8310;44.626;11.176;2023-04-07T02:26:15;7.40;44.00
16402;DHT22;8310;44.626;11.176;2023-04-07T02:28:43;7.30;43.40
16402;DHT22;8310;44.626;11.176;2023-04-07T02:31:15;7.30;43.30
16402;DHT22;8310;44.626;11.176;2023-04-07T02:33:42;7.30;44.10
16402;DHT22;8310;44.626;11.176;2023-04-07T02:36:10;7.30;43.70
16402;DHT22;8310;44.626;11.176;2023-04-07T02:38:39;7.30;43.60
16402;DHT22;8310;44.626;11.176;2023-04-07T02:41:07;7.30;43.20
16402;DHT22;8310;44.626;11.176;2023-04-07T02:43:35;7.30;43.20
16402;DHT22;8310;44.626;11.176;2023-04-07T02:46:02;7.30;43.70
16402;DHT22;8310;44.626;11.176;2023-04-07T02:48:30;7.30;43.20
16402;DHT22;8310;44.626;11.176;2023-04-07T02:50:58;7.30;43.20
16402;DHT22;8310;44.626;11.176;2023-04-07T02:53:26;7.30;43.20
16402;DHT22;8310;44.626;11.176;2023-04-07T02:55:55;7.30;43.30
16402;DHT22;8310;44.626;11.176;2023-04-07T02:58:23;7.30;43.30
16402;DHT22;8310;44.626;11.176;2023-04-07T03:00:51;7.30;43.30
16402;DHT22;8310;44.626;11.176;2023-04-07T03:03:18;7.40;43.30
16402;DHT22;8310;44.626;11.176;2023-04-07T03:05:46;7.40;43.40
16402;DHT22;8310;44.626;11.176;2023-04-07T03:08:14;7.30;43.60
16402;DHT22;8310;44.626;11.176;2023-04-07T03:10:42;7.20;43.20
16402;DHT22;8310;44.626;11.176;2023-04-07T03:13:14;7.20;43.10
16402;DHT22;8310;44.626;11.176;2023-04-07T03:15:43;7.10;43.00
16402;DHT22;8310;44.626;11.176;2023-04-07T03:18:11;7.10;43.10
16402;DHT22;8310;44.626;11.176;2023-04-07T03:20:39;7.00;43.10
16402;DHT22;8310;44.626;11.176;2023-04-07T03:23:07;7.10;43.20
16402;DHT22;8310;44.626;11.176;2023-04-07T03:25:35;7.10;43.20
16402;DHT22;8310;44.626;11.176;2023-04-07T03:28:03;7.10;43.20
16402;DHT22;8310;44.626;11.176;2023-04-07T03:30:32;7.00;43.20
16402;DHT22;8310;44.626;11.176;2023-04-07T03:33:00;7.10;43.20
16402;DHT22;8310;44.626;11.176;2023-04-07T03:35:28;7.10;43.30
16402;DHT22;8310;44.626;11.176;2023-04-07T03:37:55;7.10;43.20
16402;DHT22;8310;44.626;11.176;2023-04-07T03:40:23;7.20;43.30
16402;DHT22;8310;44.626;11.176;2023-04-07T03:42:51;7.20;43.30
16402;DHT22;8310;44.626;11.176;2023-04-07T03:45:19;7.20;43.30
16402;DHT22;8310;44.626;11.176;2023-04-07T03:47:49;7.20;43.30
16402;DHT22;8310;44.626;11.176;2023-04-07T03:50:16;7.20;43.20
16402;DHT22;8310;44.626;11.176;2023-04-07T03:52:43;7.20;43.30
16402;DHT22;8310;44.626;11.176;2023-04-07T03:55:12;7.20;43.20
16402;DHT22;8310;44.626;11.176;2023-04-07T03:57:39;7.20;43.20
16402;DHT22;8310;44.626;11.176;2023-04-07T04:00:08;7.20;43.20
16402;DHT22;8310;44.626;11.176;2023-04-07T04:02:36;7.20;43.20
16402;DHT22;8310;44.626;11.176;2023-04-07T04:05:06;7.20;43.20
16402;DHT22;8310;44.626;11.176;2023-04-07T04:07:33;7.20;43.20
16402;DHT22;8310;44.626;11.176;2023-04-07T04:10:01;7.20;43.20
16402;DHT22;8310;44.626;11.176;2023-04-07T04:12:29;7.20;43.30
16402;DHT22;8310;44.626;11.176;2023-04-07T04:14:56;7.20;43.20
16402;DHT22;8310;44.626;11.176;2023-04-07T04:17:24;7.20;43.30
16402;DHT22;8310;44.626;11.176;2023-04-07T04:19:51;7.30;43.30
16402;DHT22;8310;44.626;11.176;2023-04-07T04:22:20;7.30;43.30
16402;DHT22;8310;44.626;11.176;2023-04-07T04:24:48;7.30;43.30
16402;DHT22;8310;44.626;11.176;2023-04-07T04:27:15;7.30;43.30
16402;DHT22;8310;44.626;11.176;2023-04-07T04:29:43;7.30;43.30
16402;DHT22;8310;44.626;11.176;2023-04-07T04:32:10;7.30;43.30
16402;DHT22;8310;44.626;11.176;2023-04-07T04:34:38;7.20;43.20
16402;DHT22;8310;44.626;11.176;2023-04-07T04:37:07;7.20;43.20
16402;DHT22;8310;44.626;11.176;2023-04-07T04:39:36;7.20;43.20
16402;DHT22;8310;44.626;11.176;2023-04-07T04:42:11;7.20;43.30
16402;DHT22;8310;44.626;11.176;2023-04-07T04:44:39;7.20;43.30
16402;DHT22;8310;44.626;11.176;2023-04-07T04:47:07;7.20;43.30
16402;DHT22;8310;44.626;11.176;2023-04-07T04:49:35;7.20;43.30
16402;DHT22;8310;44.626;11.176;2023-04-07T04:52:02;7.20;43.30
16402;DHT22;8310;44.626;11.176;2023-04-07T04:54:30;7.20;43.30
16402;DHT22;8310;44.626;11.176;2023-04-07T04:56:59;7.10;43.30
16402;DHT22;8310;44.626;11.176;2023-04-07T04:59:27;7.10;43.30
16402;DHT22;8310;44.626;11.176;2023-04-07T05:01:55;7.10;43.30
16402;DHT22;8310;44.626;11.176;2023-04-07T05:04:22;7.10;43.30
16402;DHT22;8310;44.626;11.176;2023-04-07T05:06:52;7.10;43.30
16402;DHT22;8310;44.626;11.176;2023-04-07T05:09:20;7.00;43.30
16402;DHT22;8310;44.626;11.176;2023-04-07T05:11:48;7.10;43.40
16402;DHT22;8310;44.626;11.176;2023-04-07T05:14:17;7.00;43.30
16402;DHT22;8310;44.626;11.176;2023-04-07T05:16:45;7.00;43.40
16402;DHT22;8310;44.626;11.176;2023-04-07T05:19:12;7.10;43.70
16402;DHT22;8310;44.626;11.176;2023-04-07T05:21:40;7.10;43.90
16402;DHT22;8310;44.626;11.176;2023-04-07T05:24:07;7.20;44.00
16402;DHT22;8310;44.626;11.176;2023-04-07T05:26:35;7.30;44.00
16402;DHT22;8310;44.626;11.176;2023-04-07T05:29:03;7.30;43.90
16402;DHT22;8310;44.626;11.176;2023-04-07T05:31:32;7.30;43.90
16402;DHT22;8310;44.626;11.176;2023-04-07T05:34:01;7.20;44.50
16402;DHT22;8310;44.626;11.176;2023-04-07T05:36:29;7.30;44.50
16402;DHT22;8310;44.626;11.176;2023-04-07T05:38:57;7.40;44.90
16402;DHT22;8310;44.626;11.176;2023-04-07T05:41:25;7.50;44.90
16402;DHT22;8310;44.626;11.176;2023-04-07T05:43:52;7.60;45.70
16402;DHT22;8310;44.626;11.176;2023-04-07T05:46:20;7.80;45.60
16402;DHT22;8310;44.626;11.176;2023-04-07T05:48:49;8.10;46.10
16402;DHT22;8310;44.626;11.176;2023-04-07T05:51:17;8.40;45.90
16402;DHT22;8310;44.626;11.176;2023-04-07T05:53:44;8.40;45.50
16402;DHT22;8310;44.626;11.176;2023-04-07T05:56:12;8.40;45.80
16402;DHT22;8310;44.626;11.176;2023-04-07T05:58:39;8.40;44.90
16402;DHT22;8310;44.626;11.176;2023-04-07T06:01:07;8.30;44.80
16402;DHT22;8310;44.626;11.176;2023-04-07T06:03:35;8.30;44.70
16402;DHT22;8310;44.626;11.176;2023-04-07T06:06:04;8.30;44.60
16402;DHT22;8310;44.626;11.176;2023-04-07T06:08:31;8.20;44.60
16402;DHT22;8310;44.626;11.176;2023-04-07T06:10:59;8.10;44.30
16402;DHT22;8310;44.626;11.176;2023-04-07T06:13:26;8.10;44.50
16402;DHT22;8310;44.626;11.176;2023-04-07T06:15:55;8.00;44.90
16402;DHT22;8310;44.626;11.176;2023-04-07T06:18:22;8.10;45.50
16402;DHT22;8310;44.626;11.176;2023-04-07T06:20:51;8.40;46.70
16402;DHT22;8310;44.626;11.176;2023-04-07T06:23:20;8.90;48.00
16402;DHT22;8310;44.626;11.176;2023-04-07T06:25:47;9.60;49.30
16402;DHT22;8310;44.626;11.176;2023-04-07T06:28:20;10.30;49.80
16402;DHT22;8310;44.626;11.176;2023-04-07T06:30:48;10.60;48.50
16402;DHT22;8310;44.626;11.176;2023-04-07T06:33:16;10.80;47.50
16402;DHT22;8310;44.626;11.176;2023-04-07T06:35:44;10.70;46.80
16402;DHT22;8310;44.626;11.176;2023-04-07T06:38:12;10.60;46.50
16402;DHT22;8310;44.626;11.176;2023-04-07T06:40:45;10.40;45.20
16402;DHT22;8310;44.626;11.176;2023-04-07T06:43:13;10.10;45.20
16402;DHT22;8310;44.626;11.176;2023-04-07T06:45:40;9.90;44.80
16402;DHT22;8310;44.626;11.176;2023-04-07T06:48:08;9.70;45.50
16402;DHT22;8310;44.626;11.176;2023-04-07T06:50:35;9.60;46.10
16402;DHT22;8310;44.626;11.176;2023-04-07T06:53:03;9.50;45.40
16402;DHT22;8310;44.626;11.176;2023-04-07T06:55:31;9.40;46.10
16402;DHT22;8310;44.626;11.176;2023-04-07T06:58:00;9.40;45.30
16402;DHT22;8310;44.626;11.176;2023-04-07T07:00:28;9.60;45.60
16402;DHT22;8310;44.626;11.176;2023-04-07T07:02:56;9.70;45.90
16402;DHT22;8310;44.626;11.176;2023-04-07T07:05:23;9.80;45.80
16402;DHT22;8310;44.626;11.176;2023-04-07T07:07:51;9.90;45.80
16402;DHT22;8310;44.626;11.176;2023-04-07T07:10:19;10.00;46.00
16402;DHT22;8310;44.626;11.176;2023-04-07T07:12:47;10.20;46.20
16402;DHT22;8310;44.626;11.176;2023-04-07T07:15:17;10.30;46.30
16402;DHT22;8310;44.626;11.176;2023-04-07T07:17:44;10.50;46.60
16402;DHT22;8310;44.626;11.176;2023-04-07T07:20:12;10.70;46.50
16402;DHT22;8310;44.626;11.176;2023-04-07T07:22:40;10.90;46.60
16402;DHT22;8310;44.626;11.176;2023-04-07T07:25:08;11.00;46.90
16402;DHT22;8310;44.626;11.176;2023-04-07T07:27:36;11.20;46.70
16402;DHT22;8310;44.626;11.176;2023-04-07T07:30:05;11.40;47.10
16402;DHT22;8310;44.626;11.176;2023-04-07T07:32:34;11.60;47.20
16402;DHT22;8310;44.626;11.176;2023-04-07T07:35:02;11.80;47.70
16402;DHT22;8310;44.626;11.176;2023-04-07T07:37:29;12.00;48.80
16402;DHT22;8310;44.626;11.176;2023-04-07T07:39:57;12.20;47.70
16402;DHT22;8310;44.626;11.176;2023-04-07T07:42:25;12.40;47.80
16402;DHT22;8310;44.626;11.176;2023-04-07T07:44:53;12.60;47.80
16402;DHT22;8310;44.626;11.176;2023-04-07T07:47:21;12.80;47.80
16402;DHT22;8310;44.626;11.176;2023-04-07T07:49:51;13.00;47.90
16402;DHT22;8310;44.626;11.176;2023-04-07T07:52:19;13.30;48.00
16402;DHT22;8310;44.626;11.176;2023-04-07T07:54:47;13.40;48.10
16402;DHT22;8310;44.626;11.176;2023-04-07T07:57:14;13.60;48.00
16402;DHT22;8310;44.626;11.176;2023-04-07T07:59:42;13.80;48.10
16402;DHT22;8310;44.626;11.176;2023-04-07T08:02:10;14.00;48.20
16402;DHT22;8310;44.626;11.176;2023-04-07T08:04:38;14.20;48.20
16402;DHT22;8310;44.626;11.176;2023-04-07T08:07:07;14.40;48.20
16402;DHT22;8310;44.626;11.176;2023-04-07T08:09:34;14.50;48.20
16402;DHT22;8310;44.626;11.176;2023-04-07T08:12:02;14.70;48.30
16402;DHT22;8310;44.626;11.176;2023-04-07T08:14:30;14.90;48.30
16402;DHT22;8310;44.626;11.176;2023-04-07T08:16:58;15.00;48.30
16402;DHT22;8310;44.626;11.176;2023-04-07T08:19:25;15.20;48.40
16402;DHT22;8310;44.626;11.176;2023-04-07T08:21:57;15.30;48.40
16402;DHT22;8310;44.626;11.176;2023-04-07T08:24:27;15.50;48.50
16402;DHT22;8310;44.626;11.176;2023-04-07T08:26:54;15.60;48.50
16402;DHT22;8310;44.626;11.176;2023-04-07T08:29:22;15.80;48.60
16402;DHT22;8310;44.626;11.176;2023-04-07T08:31:50;16.00;48.70
16402;DHT22;8310;44.626;11.176;2023-04-07T08:34:18;16.20;48.80
16402;DHT22;8310;44.626;11.176;2023-04-07T08:36:46;16.40;48.80
16402;DHT22;8310;44.626;11.176;2023-04-07T08:39:13;16.50;48.50
16402;DHT22;8310;44.626;11.176;2023-04-07T08:41:42;16.70;48.70
16402;DHT22;8310;44.626;11.176;2023-04-07T08:44:12;16.80;48.80
16402;DHT22;8310;44.626;11.176;2023-04-07T08:46:41;17.00;48.90
16402;DHT22;8310;44.626;11.176;2023-04-07T08:49:10;17.20;48.90
16402;DHT22;8310;44.626;11.176;2023-04-07T08:51:44;17.40;49.00
16402;DHT22;8310;44.626;11.176;2023-04-07T08:54:13;17.50;49.00
16402;DHT22;8310;44.626;11.176;2023-04-07T08:56:42;17.70;49.50
16402;DHT22;8310;44.626;11.176;2023-04-07T08:59:12;17.80;48.80
16402;DHT22;8310;44.626;11.176;2023-04-07T09:01:40;17.90;48.80
16402;DHT22;8310;44.626;11.176;2023-04-07T09:04:09;17.90;48.80
16402;DHT22;8310;44.626;11.176;2023-04-07T09:06:37;18.00;48.80
16402;DHT22;8310;44.626;11.176;2023-04-07T09:09:04;18.20;48.90
16402;DHT22;8310;44.626;11.176;2023-04-07T09:11:35;18.30;49.00
16402;DHT22;8310;44.626;11.176;2023-04-07T09:14:05;18.40;49.00
16402;DHT22;8310;44.626;11.176;2023-04-07T09:16:32;18.50;49.00
16402;DHT22;8310;44.626;11.176;2023-04-07T09:19:00;18.60;49.00
16402;DHT22;8310;44.626;11.176;2023-04-07T09:21:46;18.70;49.10
16402;DHT22;8310;44.626;11.176;2023-04-07T09:24:21;18.90;48.60
16402;DHT22;8310;44.626;11.176;2023-04-07T09:26:49;18.90;48.60
16402;DHT22;8310;44.626;11.176;2023-04-07T09:29:21;18.90;47.80
16402;DHT22;8310;44.626;11.176;2023-04-07T09:31:49;18.80;48.00
16402;DHT22;8310;44.626;11.176;2023-04-07T09:34:27;18.70;47.90
16402;DHT22;8310;44.626;11.176;2023-04-07T09:36:55;18.70;48.30
16402;DHT22;8310;44.626;11.176;2023-04-07T09:39:22;18.80;48.60
16402;DHT22;8310;44.626;11.176;2023-04-07T09:41:50;19.00;48.80
16402;DHT22;8310;44.626;11.176;2023-04-07T09:44:17;19.00;48.60
16402;DHT22;8310;44.626;11.176;2023-04-07T09:46:50;19.10;48.70
16402;DHT22;8310;44.626;11.176;2023-04-07T09:49:19;19.30;49.00
16402;DHT22;8310;44.626;11.176;2023-04-07T09:51:52;19.50;49.20
16402;DHT22;8310;44.626;11.176;2023-04-07T09:54:33;19.70;49.40
16402;DHT22;8310;44.626;11.176;2023-04-07T09:57:02;19.90;49.50
16402;DHT22;8310;44.626;11.176;2023-04-07T09:59:31;20.00;49.20
16402;DHT22;8310;44.626;11.176;2023-04-07T10:02:01;20.20;49.80
16402;DHT22;8310;44.626;11.176;2023-04-07T10:04:29;20.30;49.20
16402;DHT22;8310;44.626;11.176;2023-04-07T10:06:58;20.40;49.30
16402;DHT22;8310;44.626;11.176;2023-04-07T10:09:28;20.50;49.20
16402;DHT22;8310;44.626;11.176;2023-04-07T10:11:57;20.60;49.20
16402;DHT22;8310;44.626;11.176;2023-04-07T10:14:26;20.70;49.00
16402;DHT22;8310;44.626;11.176;2023-04-07T10:16:54;20.80;49.00
16402;DHT22;8310;44.626;11.176;2023-04-07T10:19:23;20.80;48.80
16402;DHT22;8310;44.626;11.176;2023-04-07T10:21:53;20.80;48.60
16402;DHT22;8310;44.626;11.176;2023-04-07T10:24:33;20.70;48.50
16402;DHT22;8310;44.626;11.176;2023-04-07T10:27:06;20.70;48.80
16402;DHT22;8310;44.626;11.176;2023-04-07T10:29:35;20.80;49.00
16402;DHT22;8310;44.626;11.176;2023-04-07T10:32:04;20.90;49.10
16402;DHT22;8310;44.626;11.176;2023-04-07T10:35:07;21.10;49.20
16402;DHT22;8310;44.626;11.176;2023-04-07T10:37:35;21.20;49.10
16402;DHT22;8310;44.626;11.176;2023-04-07T10:40:27;21.30;49.10
16402;DHT22;8310;44.626;11.176;2023-04-07T10:42:54;21.50;49.30
16402;DHT22;8310;44.626;11.176;2023-04-07T10:45:51;21.60;49.30
16402;DHT22;8310;44.626;11.176;2023-04-07T10:48:20;21.70;49.20
16402;DHT22;8310;44.626;11.176;2023-04-07T10:51:14;21.80;49.20
16402;DHT22;8310;44.626;11.176;2023-04-07T10:57:20;22.10;49.30
16402;DHT22;8310;44.626;11.176;2023-04-07T11:00:15;22.10;49.10
16402;DHT22;8310;44.626;11.176;2023-04-07T11:02:43;22.20;49.00
16402;DHT22;8310;44.626;11.176;2023-04-07T11:05:20;22.20;48.80
16402;DHT22;8310;44.626;11.176;2023-04-07T11:07:53;22.20;48.50
16402;DHT22;8310;44.626;11.176;2023-04-07T11:10:22;22.10;48.40
16402;DHT22;8310;44.626;11.176;2023-04-07T11:13:05;22.00;48.40
16402;DHT22;8310;44.626;11.176;2023-04-07T11:15:34;22.00;48.50
16402;DHT22;8310;44.626;11.176;2023-04-07T11:18:06;22.00;48.20
16402;DHT22;8310;44.626;11.176;2023-04-07T11:20:45;22.00;48.30
16402;DHT22;8310;44.626;11.176;2023-04-07T11:23:15;21.90;48.10
16402;DHT22;8310;44.626;11.176;2023-04-07T11:25:44;21.90;48.10
16402;DHT22;8310;44.626;11.176;2023-04-07T11:28:13;21.80;48.00
16402;DHT22;8310;44.626;11.176;2023-04-07T11:30:48;21.80;48.00
16402;DHT22;8310;44.626;11.176;2023-04-07T11:33:17;21.80;48.20
16402;DHT22;8310;44.626;11.176;2023-04-07T11:35:50;21.80;48.30
16402;DHT22;8310;44.626;11.176;2023-04-07T11:38:21;21.80;48.40
16402;DHT22;8310;44.626;11.176;2023-04-07T11:40:48;21.90;48.40
16402;DHT22;8310;44.626;11.176;2023-04-07T11:43:18;21.90;48.20
16402;DHT22;8310;44.626;11.176;2023-04-07T11:45:46;21.90;48.20
16402;DHT22;8310;44.626;11.176;2023-04-07T11:48:28;22.00;48.20
16402;DHT22;8310;44.626;11.176;2023-04-07T11:50:56;22.00;48.30
16402;DHT22;8310;44.626;11.176;2023-04-07T11:53:26;22.10;48.40
16402;DHT22;8310;44.626;11.176;2023-04-07T11:56:01;22.10;48.40
16402;DHT22;8310;44.626;11.176;2023-04-07T11:58:30;22.10;48.40
16402;DHT22;8310;44.626;11.176;2023-04-07T12:00:59;22.20;48.30
16402;DHT22;8310;44.626;11.176;2023-04-07T12:03:30;22.20;48.20
16402;DHT22;8310;44.626;11.176;2023-04-07T12:05:57;22.20;48.30
16402;DHT22;8310;44.626;11.176;2023-04-07T12:08:40;22.30;48.40
16402;DHT22;8310;44.626;11.176;2023-04-07T12:11:08;22.30;48.20
16402;DHT22;8310;44.626;11.176;2023-04-07T12:13:36;22.40;47.80
16402;DHT22;8310;44.626;11.176;2023-04-07T12:16:04;22.30;47.80
16402;DHT22;8310;44.626;11.176;2023-04-07T12:18:31;22.30;47.90
16402;DHT22;8310;44.626;11.176;2023-04-07T12:20:58;22.30;47.90
16402;DHT22;8310;44.626;11.176;2023-04-07T12:23:26;22.30;47.80
16402;DHT22;8310;44.626;11.176;2023-04-07T12:25:55;22.20;47.90
16402;DHT22;8310;44.626;11.176;2023-04-07T12:28:22;22.20;47.80
16402;DHT22;8310;44.626;11.176;2023-04-07T12:30:50;22.20;47.90
16402;DHT22;8310;44.626;11.176;2023-04-07T12:33:17;22.20;47.90
16402;DHT22;8310;44.626;11.176;2023-04-07T12:35:44;22.20;47.90
16402;DHT22;8310;44.626;11.176;2023-04-07T12:38:12;22.20;47.90
16402;DHT22;8310;44.626;11.176;2023-04-07T12:40:40;22.30;48.00
16402;DHT22;8310;44.626;11.176;2023-04-07T12:43:09;22.30;48.00
16402;DHT22;8310;44.626;11.176;2023-04-07T12:45:36;22.40;48.00
16402;DHT22;8310;44.626;11.176;2023-04-07T12:48:04;22.50;48.00
16402;DHT22;8310;44.626;11.176;2023-04-07T12:50:31;22.50;47.90
16402;DHT22;8310;44.626;11.176;2023-04-07T12:52:58;22.50;47.90
16402;DHT22;8310;44.626;11.176;2023-04-07T12:55:28;22.50;47.70
16402;DHT22;8310;44.626;11.176;2023-04-07T12:57:58;22.40;47.60
16402;DHT22;8310;44.626;11.176;2023-04-07T13:00:31;22.30;47.50
16402;DHT22;8310;44.626;11.176;2023-04-07T13:02:59;22.30;47.60
16402;DHT22;8310;44.626;11.176;2023-04-07T13:05:27;22.30;47.60
16402;DHT22;8310;44.626;11.176;2023-04-07T13:07:55;22.30;47.60
16402;DHT22;8310;44.626;11.176;2023-04-07T13:10:23;22.30;47.50
16402;DHT22;8310;44.626;11.176;2023-04-07T13:12:50;22.30;47.50
16402;DHT22;8310;44.626;11.176;2023-04-07T13:15:18;22.30;47.40
16402;DHT22;8310;44.626;11.176;2023-04-07T13:17:47;22.30;47.40
16402;DHT22;8310;44.626;11.176;2023-04-07T13:20:14;22.30;47.40
16402;DHT22;8310;44.626;11.176;2023-04-07T13:22:41;22.20;47.30
16402;DHT22;8310;44.626;11.176;2023-04-07T13:25:12;22.20;47.30
16402;DHT22;8310;44.626;11.176;2023-04-07T13:27:39;22.20;47.30
16402;DHT22;8310;44.626;11.176;2023-04-07T13:30:08;22.10;47.20
16402;DHT22;8310;44.626;11.176;2023-04-07T13:32:35;22.10;47.20
16402;DHT22;8310;44.626;11.176;2023-04-07T13:35:05;22.10;47.20
16402;DHT22;8310;44.626;11.176;2023-04-07T13:37:32;22.00;47.00
16402;DHT22;8310;44.626;11.176;2023-04-07T13:40:00;22.00;46.90
16402;DHT22;8310;44.626;11.176;2023-04-07T13:42:27;21.90;46.90
16402;DHT22;8310;44.626;11.176;2023-04-07T13:44:55;21.90;46.90
16402;DHT22;8310;44.626;11.176;2023-04-07T13:47:26;21.80;46.70
16402;DHT22;8310;44.626;11.176;2023-04-07T13:49:54;21.70;46.70
16402;DHT22;8310;44.626;11.176;2023-04-07T13:52:24;21.60;46.70
16402;DHT22;8310;44.626;11.176;2023-04-07T13:54:53;21.60;46.80
16402;DHT22;8310;44.626;11.176;2023-04-07T13:57:20;21.50;46.70
16402;DHT22;8310;44.626;11.176;2023-04-07T13:59:49;21.50;46.70
16402;DHT22;8310;44.626;11.176;2023-04-07T14:02:18;21.50;46.70
16402;DHT22;8310;44.626;11.176;2023-04-07T14:04:47;21.40;46.70
16402;DHT22;8310;44.626;11.176;2023-04-07T14:07:15;21.40;46.50
16402;DHT22;8310;44.626;11.176;2023-04-07T14:09:47;21.30;46.50
16402;DHT22;8310;44.626;11.176;2023-04-07T14:12:15;21.20;46.40
16402;DHT22;8310;44.626;11.176;2023-04-07T14:14:42;21.20;46.40
16402;DHT22;8310;44.626;11.176;2023-04-07T14:17:09;21.10;46.30
16402;DHT22;8310;44.626;11.176;2023-04-07T14:19:40;21.10;46.30
16402;DHT22;8310;44.626;11.176;2023-04-07T14:22:08;21.00;46.30
16402;DHT22;8310;44.626;11.176;2023-04-07T14:24:35;21.00;46.30
16402;DHT22;8310;44.626;11.176;2023-04-07T14:27:04;20.90;46.20
16402;DHT22;8310;44.626;11.176;2023-04-07T14:29:32;20.80;46.20
16402;DHT22;8310;44.626;11.176;2023-04-07T14:32:00;20.80;46.20
16402;DHT22;8310;44.626;11.176;2023-04-07T14:34:27;20.70;46.10
16402;DHT22;8310;44.626;11.176;2023-04-07T14:36:56;20.70;46.10
16402;DHT22;8310;44.626;11.176;2023-04-07T14:39:23;20.70;46.10
16402;DHT22;8310;44.626;11.176;2023-04-07T14:41:51;20.60;46.10
16402;DHT22;8310;44.626;11.176;2023-04-07T14:44:25;20.60;46.10
16402;DHT22;8310;44.626;11.176;2023-04-07T14:46:53;20.60;46.80
16402;DHT22;8310;44.626;11.176;2023-04-07T14:49:21;20.60;46.20
16402;DHT22;8310;44.626;11.176;2023-04-07T14:51:49;20.60;46.20
16402;DHT22;8310;44.626;11.176;2023-04-07T14:54:17;20.60;46.20
16402;DHT22;8310;44.626;11.176;2023-04-07T14:56:44;20.60;46.20
16402;DHT22;8310;44.626;11.176;2023-04-07T14:59:12;20.50;46.10
16402;DHT22;8310;44.626;11.176;2023-04-07T15:01:41;20.50;46.10
16402;DHT22;8310;44.626;11.176;2023-04-07T15:04:09;20.50;46.20
16402;DHT22;8310;44.626;11.176;2023-04-07T15:06:39;20.50;46.10
16402;DHT22;8310;44.626;11.176;2023-04-07T15:09:07;20.50;46.10
16402;DHT22;8310;44.626;11.176;2023-04-07T15:11:35;20.50;46.10
16402;DHT22;8310;44.626;11.176;2023-04-07T15:14:02;20.50;46.10
16402;DHT22;8310;44.626;11.176;2023-04-07T15:16:31;20.50;46.10
16402;DHT22;8310;44.626;11.176;2023-04-07T15:19:00;20.50;46.00
16402;DHT22;8310;44.626;11.176;2023-04-07T15:21:28;20.40;46.00
16402;DHT22;8310;44.626;11.176;2023-04-07T15:23:55;20.40;45.70
16402;DHT22;8310;44.626;11.176;2023-04-07T15:26:23;20.40;45.70
16402;DHT22;8310;44.626;11.176;2023-04-07T15:28:50;20.30;45.60
16402;DHT22;8310;44.626;11.176;2023-04-07T15:31:18;20.20;45.30
16402;DHT22;8310;44.626;11.176;2023-04-07T15:33:46;20.00;45.30
16402;DHT22;8310;44.626;11.176;2023-04-07T15:36:16;19.90;45.30
16402;DHT22;8310;44.626;11.176;2023-04-07T15:38:43;19.80;45.30
16402;DHT22;8310;44.626;11.176;2023-04-07T15:41:14;19.70;45.20
16402;DHT22;8310;44.626;11.176;2023-04-07T15:43:41;19.60;45.20
16402;DHT22;8310;44.626;11.176;2023-04-07T15:46:09;19.50;45.20
16402;DHT22;8310;44.626;11.176;2023-04-07T15:48:36;19.50;44.90
16402;DHT22;8310;44.626;11.176;2023-04-07T15:51:04;19.30;44.80
16402;DHT22;8310;44.626;11.176;2023-04-07T15:53:33;19.20;44.90